Time;durP1;ratioP1;P1;durP2;ratioP2;P2;SDS_P1;SDS_P2;PMS_P1;PMS_P2;Temp;Humidity;BMP_temperature;BMP_pressure;BME280_temperature;BME280_humidity;BME280_pressure;Samples;Min_cycle;Max_cycle;Signal;HPM_P1;HPM_P2
2023/09/30 00:01:34;;;;;;;;;3.00;3.00;;;;;24.49;46.40;100859.81;110014;1251;19670;-36
2023/09/30 00:04:03;;;;;;;;;2.50;2.50;;;;;24.50;46.60;100862.48;110027;1251;20037;-36
2023/09/30 00:06:30;;;;;;;;;3.00;3.00;;;;;24.50;46.41;100863.53;109979;1259;20560;-36
2023/09/30 00:08:58;;;;;;;;;3.00;3.00;;;;;24.49;46.53;100863.98;110049;1267;19687;-37
2023/09/30 00:11:25;;;;;;;;;3.00;3.00;;;;;24.49;46.71;100863.01;110018;1267;18661;-37
2023/09/30 00:13:52;;;;;;;;;3.00;3.00;;;;;24.47;46.51;100865.70;110030;1253;20927;-36
2023/09/30 00:16:19;;;;;;;;;3.00;3.00;;;;;24.48;46.47;100867.88;110036;1259;19503;-37
2023/09/30 00:18:47;;;;;;;;;3.00;2.00;;;;;24.50;46.66;100868.40;110016;1259;21044;-36
2023/09/30 00:21:15;;;;;;;;;3.00;3.00;;;;;24.50;46.51;100867.70;110037;1253;20750;-36
2023/09/30 00:23:42;;;;;;;;;3.00;3.00;;;;;24.48;46.44;100862.08;110011;1252;20938;-37
2023/09/30 00:26:09;;;;;;;;;2.00;2.00;;;;;24.48;46.69;100862.19;110046;1267;18643;-36
2023/09/30 00:28:37;;;;;;;;;2.00;2.00;;;;;24.50;46.53;100866.38;110031;1253;20796;-36
2023/09/30 00:31:04;;;;;;;;;2.00;2.00;;;;;24.46;46.86;100858.64;110023;1259;22691;-36
2023/09/30 00:33:31;;;;;;;;;2.00;2.00;;;;;24.50;46.50;100861.61;110035;1251;19963;-36
2023/09/30 00:35:59;;;;;;;;;2.00;2.00;;;;;24.49;46.64;100855.83;110021;1267;19328;-37
2023/09/30 00:38:26;;;;;;;;;3.00;3.00;;;;;24.47;46.69;100849.16;110015;1267;18568;-36
2023/09/30 00:40:53;;;;;;;;;3.00;3.00;;;;;24.47;46.58;100847.67;109999;1259;21660;-37
2023/09/30 00:43:21;;;;;;;;;3.00;2.00;;;;;24.51;46.73;100848.73;110024;1252;20724;-37
2023/09/30 00:45:48;;;;;;;;;2.00;2.00;;;;;24.56;46.55;100850.37;110045;1267;22655;-36
2023/09/30 00:48:16;;;;;;;;;2.00;2.00;;;;;24.55;46.56;100846.91;110003;1253;20161;-36
2023/09/30 00:50:43;;;;;;;;;4.33;4.33;;;;;24.52;46.51;100844.94;110033;1251;22087;-36
2023/09/30 00:53:10;;;;;;;;;5.00;5.00;;;;;24.52;46.61;100850.25;110014;1253;18552;-37
2023/09/30 00:55:38;;;;;;;;;2.00;2.00;;;;;24.51;46.66;100850.92;110023;1253;20067;-37
2023/09/30 00:58:05;;;;;;;;;3.00;3.00;;;;;24.50;46.64;100852.85;110039;1267;19352;-37
2023/09/30 01:00:32;;;;;;;;;3.00;3.00;;;;;24.50;46.72;100852.30;109965;1251;19506;-36
2023/09/30 01:03:03;;;;;;;;;2.50;2.50;;;;;24.55;46.52;100852.78;109955;1251;20204;-36
2023/09/30 01:05:31;;;;;;;;;2.00;2.00;;;;;24.55;46.44;100847.26;109999;1267;20970;-36
2023/09/30 01:07:59;;;;;;;;;4.00;3.00;;;;;24.54;46.69;100844.58;110000;1267;18419;-37
2023/09/30 01:10:27;;;;;;;;;2.00;2.00;;;;;24.49;46.72;100850.94;110016;1253;22374;-36
2023/09/30 01:12:54;;;;;;;;;3.00;3.00;;;;;24.53;46.73;100847.93;110051;1267;20639;-36
2023/09/30 01:15:22;;;;;;;;;2.50;2.00;;;;;24.53;46.61;100845.52;109983;1267;22681;-36
2023/09/30 01:17:49;;;;;;;;;5.00;3.00;;;;;24.54;46.74;100845.02;110021;1253;20030;-36
2023/09/30 01:20:20;;;;;;;;;3.50;2.50;;;;;24.51;46.62;100849.61;110015;1253;19197;-37
2023/09/30 01:22:48;;;;;;;;;2.00;2.00;;;;;24.51;46.81;100844.23;110033;1267;19699;-37
2023/09/30 01:25:15;;;;;;;;;2.00;2.00;;;;;24.51;46.64;100847.14;110012;1259;19716;-36
2023/09/30 01:27:43;;;;;;;;;2.50;2.50;;;;;24.51;46.52;100846.10;109990;1259;20854;-36
2023/09/30 01:30:11;;;;;;;;;3.00;3.00;;;;;24.54;46.47;100846.61;110020;1251;18402;-37
2023/09/30 01:32:38;;;;;;;;;2.00;2.00;;;;;24.51;46.57;100844.90;110046;1267;18615;-36
2023/09/30 01:35:05;;;;;;;;;3.00;2.00;;;;;24.52;46.72;100851.12;109957;1267;22233;-36
2023/09/30 01:37:33;;;;;;;;;2.50;2.50;;;;;24.50;46.84;100855.20;109927;1251;19647;-36
2023/09/30 01:40:00;;;;;;;;;3.00;3.00;;;;;24.50;46.73;100852.20;110031;1253;21655;-36
2023/09/30 01:42:28;;;;;;;;;3.00;3.00;;;;;24.48;46.81;100851.88;110033;1259;20662;-36
2023/09/30 01:44:56;;;;;;;;;3.00;3.00;;;;;24.48;46.65;100848.27;110018;1252;22043;-36
2023/09/30 01:47:24;;;;;;;;;3.00;3.00;;;;;24.50;46.84;100848.40;110039;1252;19870;-36
2023/09/30 01:49:51;;;;;;;;;2.00;2.00;;;;;24.49;46.78;100855.48;110049;1267;19449;-36
2023/09/30 01:52:18;;;;;;;;;3.00;3.00;;;;;24.51;46.73;100858.30;109999;1251;21901;-36
2023/09/30 01:54:46;;;;;;;;;5.00;3.00;;;;;24.50;46.78;100865.16;110025;1260;20070;-36
2023/09/30 01:57:13;;;;;;;;;2.00;2.00;;;;;24.49;46.86;100862.27;110028;1267;19355;-36
2023/09/30 01:59:40;;;;;;;;;3.00;3.00;;;;;24.53;46.61;100861.09;109940;1267;19811;-36
2023/09/30 02:02:08;;;;;;;;;5.00;3.00;;;;;24.53;46.58;100865.57;110048;1267;18605;-36
2023/09/30 02:04:35;;;;;;;;;5.00;3.00;;;;;24.53;46.62;100860.64;110013;1253;20784;-36
2023/09/30 02:07:03;;;;;;;;;2.00;2.00;;;;;24.50;46.80;100868.66;110007;1267;19879;-37
2023/09/30 02:09:31;;;;;;;;;2.00;2.00;;;;;24.49;46.92;100867.04;110027;1267;18629;-36
2023/09/30 02:11:58;;;;;;;;;2.67;2.00;;;;;24.50;46.79;100865.50;110065;1267;19431;-36
2023/09/30 02:14:25;;;;;;;;;3.00;3.00;;;;;24.50;46.73;100867.36;110061;1251;18499;-36
2023/09/30 02:16:52;;;;;;;;;2.00;2.00;;;;;24.53;46.83;100868.98;109994;1267;18663;-36
2023/09/30 02:19:21;;;;;;;;;2.50;2.50;;;;;24.52;46.78;100871.12;110027;1259;20618;-36
2023/09/30 02:21:49;;;;;;;;;2.00;2.00;;;;;24.50;46.98;100868.90;110000;1254;19697;-36
2023/09/30 02:24:17;;;;;;;;;2.67;2.67;;;;;24.53;46.90;100864.37;110018;1253;20026;-36
2023/09/30 02:26:44;;;;;;;;;3.00;3.00;;;;;24.51;46.74;100864.01;110027;1251;19318;-37
2023/09/30 02:29:11;;;;;;;;;2.00;2.00;;;;;24.53;46.73;100865.08;110030;1251;20900;-37
2023/09/30 02:31:38;;;;;;;;;3.00;3.00;;;;;24.52;46.90;100863.06;110044;1251;18894;-37
2023/09/30 02:34:06;;;;;;;;;3.00;3.00;;;;;24.55;46.60;100869.16;110037;1267;19249;-37
2023/09/30 02:36:33;;;;;;;;;3.00;3.00;;;;;24.53;46.55;100869.17;110039;1259;19544;-36
2023/09/30 02:39:01;;;;;;;;;2.00;2.00;;;;;24.52;46.79;100865.96;110004;1259;20114;-36
2023/09/30 02:41:29;;;;;;;;;2.00;2.00;;;;;24.56;46.75;100865.75;110017;1253;20979;-37
2023/09/30 02:43:56;;;;;;;;;3.00;3.00;;;;;24.54;46.74;100861.07;110012;1253;21023;-36
2023/09/30 02:46:23;;;;;;;;;2.00;2.00;;;;;24.52;46.88;100860.91;109892;1267;18610;-37
2023/09/30 02:48:51;;;;;;;;;3.00;3.00;;;;;24.52;46.79;100858.40;110032;1267;19561;-37
2023/09/30 02:51:19;;;;;;;;;3.00;3.00;;;;;24.52;46.59;100860.16;109991;1251;19671;-36
2023/09/30 02:53:48;;;;;;;;;3.00;3.00;;;;;24.54;46.78;100858.44;110006;1267;19809;-36
2023/09/30 02:56:15;;;;;;;;;2.00;2.00;;;;;24.55;46.70;100863.09;110014;1253;20803;-36
2023/09/30 02:58:42;;;;;;;;;3.00;3.00;;;;;24.54;46.53;100859.31;110009;1253;19705;-36
2023/09/30 03:01:10;;;;;;;;;3.00;3.00;;;;;24.56;46.65;100857.21;109887;1252;19898;-36
2023/09/30 03:03:37;;;;;;;;;3.00;3.00;;;;;24.53;46.75;100855.11;109930;1266;19332;-37
2023/09/30 03:06:05;;;;;;;;;5.00;3.00;;;;;24.53;46.59;100858.12;110048;1253;19665;-36
2023/09/30 03:08:35;;;;;;;;;2.00;2.00;;;;;24.56;46.81;100862.36;109997;1251;20147;-36
2023/09/30 03:11:04;;;;;;;;;2.00;2.00;;;;;24.55;46.86;100859.80;110016;1253;20756;-37
2023/09/30 03:13:31;;;;;;;;;3.00;3.00;;;;;24.57;46.72;100858.52;110050;1253;19610;-36
2023/09/30 03:15:58;;;;;;;;;3.00;2.00;;;;;24.56;46.66;100861.77;110013;1253;22842;-37
2023/09/30 03:18:26;;;;;;;;;3.00;3.00;;;;;24.54;46.69;100864.36;110022;1253;21243;-36
2023/09/30 03:20:56;;;;;;;;;3.00;3.00;;;;;24.51;46.71;100869.37;110036;1252;19718;-36
2023/09/30 03:23:28;;;;;;;;;2.00;2.00;;;;;24.52;46.73;100873.05;110012;1254;20078;-37
2023/09/30 03:25:56;;;;;;;;;2.00;2.00;;;;;24.54;46.83;100875.20;110016;1251;21158;-36
2023/09/30 03:28:23;;;;;;;;;2.00;2.00;;;;;24.51;46.88;100879.84;109999;1251;18359;-36
2023/09/30 03:30:51;;;;;;;;;3.00;3.00;;;;;24.51;46.97;100882.95;110034;1251;20067;-36
2023/09/30 03:33:18;;;;;;;;;3.00;3.00;;;;;24.52;47.01;100878.50;110037;1267;20656;-37
2023/09/30 03:35:45;;;;;;;;;3.00;3.00;;;;;24.53;46.97;100882.21;110026;1251;22848;-37
2023/09/30 03:38:13;;;;;;;;;3.00;3.00;;;;;24.54;46.84;100883.15;110028;1253;20013;-37
2023/09/30 03:40:44;;;;;;;;;3.00;3.00;;;;;24.53;46.85;100889.99;109954;1267;19349;-37
2023/09/30 03:43:12;;;;;;;;;3.00;2.00;;;;;24.53;46.95;100893.34;110008;1253;19706;-37
2023/09/30 03:45:39;;;;;;;;;5.00;2.00;;;;;24.52;46.99;100893.58;110021;1267;18619;-37
2023/09/30 03:48:06;;;;;;;;;3.00;3.00;;;;;24.56;46.76;100899.11;109991;1253;20656;-36
2023/09/30 03:50:34;;;;;;;;;2.00;2.00;;;;;24.57;46.78;100901.02;109987;1267;22823;-36
2023/09/30 03:53:01;;;;;;;;;3.00;3.00;;;;;24.52;46.85;100906.06;110016;1253;20053;-37
2023/09/30 03:55:29;;;;;;;;;3.00;3.00;;;;;24.51;46.99;100905.47;109994;1267;19486;-37
2023/09/30 03:57:57;;;;;;;;;3.00;3.00;;;;;24.51;46.78;100906.17;109963;1251;19728;-38
2023/09/30 04:00:24;;;;;;;;;2.00;2.00;;;;;24.57;46.79;100913.84;109996;1253;22607;-38
2023/09/30 04:02:54;;;;;;;;;3.00;3.00;;;;;24.56;46.98;100920.20;110008;1251;20813;-38
2023/09/30 04:05:26;;;;;;;;;2.00;2.00;;;;;24.55;47.03;100927.05;109992;1251;19816;-37
2023/09/30 04:07:53;;;;;;;;;3.00;3.00;;;;;24.54;46.82;100924.98;110016;1251;20152;-37
2023/09/30 04:10:22;;;;;;;;;2.00;2.00;;;;;24.52;47.03;100931.25;109995;1253;22462;-37
2023/09/30 04:12:49;;;;;;;;;2.00;2.00;;;;;24.52;47.12;100932.69;110005;1259;19529;-37
2023/09/30 04:15:17;;;;;;;;;3.00;3.00;;;;;24.55;46.85;100939.92;109992;1259;20053;-37
2023/09/30 04:17:44;;;;;;;;;5.00;3.00;;;;;24.54;46.80;100944.48;109992;1252;20801;-37
2023/09/30 04:20:15;;;;;;;;;2.00;2.00;;;;;24.52;46.94;100944.06;109996;1267;18703;-37
2023/09/30 04:22:46;;;;;;;;;3.00;3.00;;;;;24.49;47.00;100945.10;110024;1251;20234;-37
2023/09/30 04:25:16;;;;;;;;;3.00;3.00;;;;;24.52;46.98;100946.86;110025;1254;20807;-37
2023/09/30 04:27:44;;;;;;;;;2.50;2.00;;;;;24.53;46.80;100950.41;110017;1253;19575;-37
2023/09/30 04:30:11;;;;;;;;;3.00;3.00;;;;;24.54;47.06;100955.39;109907;1267;18623;-37
2023/09/30 04:32:39;;;;;;;;;2.67;2.00;;;;;24.53;46.92;100954.74;109946;1267;19388;-37
2023/09/30 04:35:08;;;;;;;;;3.00;3.00;;;;;24.54;46.95;100961.85;109993;1259;19768;-37
2023/09/30 04:37:36;;;;;;;;;2.00;2.00;;;;;24.54;47.08;100970.78;109932;1253;20039;-37
2023/09/30 04:40:07;;;;;;;;;3.00;2.00;;;;;24.53;46.99;100976.43;110057;1267;19293;-37
2023/09/30 04:42:36;;;;;;;;;2.00;2.00;;;;;24.52;47.23;100975.52;109990;1259;22284;-37
2023/09/30 04:45:06;;;;;;;;;2.50;2.00;;;;;24.50;47.22;100977.23;110000;1253;20116;-37
2023/09/30 04:47:33;;;;;;;;;2.00;2.00;;;;;24.51;47.05;100981.92;109964;1251;20740;-37
2023/09/30 04:50:04;;;;;;;;;3.00;3.00;;;;;24.51;47.26;100983.73;110008;1251;22001;-37
2023/09/30 04:52:31;;;;;;;;;3.00;3.00;;;;;24.51;47.25;100987.95;110035;1253;20199;-36
2023/09/30 04:54:59;;;;;;;;;3.00;3.00;;;;;24.51;47.06;100997.91;110004;1267;19355;-37
2023/09/30 04:57:28;;;;;;;;;2.00;2.00;;;;;24.52;47.02;101005.31;110006;1253;19629;-38
2023/09/30 04:59:55;;;;;;;;;2.00;2.00;;;;;24.53;46.99;101007.88;110026;1267;18680;-38
2023/09/30 05:02:23;;;;;;;;;3.00;3.00;;;;;24.52;47.02;101013.30;110023;1259;20612;-37
2023/09/30 05:04:50;;;;;;;;;2.00;2.00;;;;;24.55;47.13;101020.84;110015;1253;20819;-38
2023/09/30 05:07:17;;;;;;;;;3.00;3.00;;;;;24.53;47.08;101022.16;109997;1251;20097;-38
2023/09/30 05:09:45;;;;;;;;;2.00;2.00;;;;;24.53;47.18;101026.55;109977;1267;19820;-37
2023/09/30 05:12:12;;;;;;;;;3.00;3.00;;;;;24.55;47.18;101029.98;110011;1267;18522;-36
2023/09/30 05:14:39;;;;;;;;;3.00;3.00;;;;;24.54;47.25;101033.27;110014;1251;20080;-36
2023/09/30 05:17:08;;;;;;;;;1.67;1.67;;;;;24.54;47.25;101039.41;110000;1251;22649;-37
2023/09/30 05:19:36;;;;;;;;;2.00;2.00;;;;;24.55;47.14;101046.35;109977;1259;19537;-37
2023/09/30 05:22:05;;;;;;;;;2.00;2.00;;;;;24.52;47.31;101048.96;109997;1253;20056;-37
2023/09/30 05:24:32;;;;;;;;;2.00;2.00;;;;;24.55;47.13;101058.84;110016;1251;20820;-37
2023/09/30 05:26:59;;;;;;;;;2.00;2.00;;;;;24.56;47.32;101066.34;109956;1267;23040;-37
2023/09/30 05:29:27;;;;;;;;;2.00;2.00;;;;;24.57;47.26;101074.83;110007;1252;20374;-38
2023/09/30 05:31:54;;;;;;;;;2.00;2.00;;;;;24.57;47.10;101080.69;110011;1251;19402;-37
2023/09/30 05:34:22;;;;;;;;;2.00;2.00;;;;;24.58;47.35;101091.36;110013;1259;19674;-37
2023/09/30 05:36:50;;;;;;;;;2.00;2.00;;;;;24.58;47.27;101099.96;110023;1252;23227;-37
2023/09/30 05:39:19;;;;;;;;;2.00;2.00;;;;;24.54;47.24;101106.84;110075;1253;21234;-38
2023/09/30 05:41:47;;;;;;;;;2.00;2.00;;;;;24.52;47.42;101111.61;110021;1267;18539;-38
2023/09/30 05:44:15;;;;;;;;;2.00;2.00;;;;;24.53;47.49;101112.93;110029;1253;20089;-38
2023/09/30 05:46:43;;;;;;;;;2.00;2.00;;;;;24.56;47.30;101118.98;110033;1267;19328;-37
2023/09/30 05:49:13;;;;;;;;;2.00;2.00;;;;;24.56;47.43;101123.75;110022;1267;19905;-38
2023/09/30 05:51:41;;;;;;;;;3.00;3.00;;;;;24.54;47.49;101122.77;110017;1254;20044;-37
2023/09/30 05:54:09;;;;;;;;;2.50;2.50;;;;;24.54;47.24;101125.58;110054;1267;19324;-37
2023/09/30 05:56:38;;;;;;;;;1.00;1.00;;;;;24.53;47.16;101124.21;110048;1253;19660;-38
2023/09/30 05:59:06;;;;;;;;;2.00;2.00;;;;;24.56;47.30;101132.08;110025;1251;20016;-38
2023/09/30 06:01:34;;;;;;;;;2.00;2.00;;;;;24.56;47.22;101130.70;110003;1267;19305;-37
2023/09/30 06:04:01;;;;;;;;;2.00;2.00;;;;;24.54;47.18;101130.06;110002;1251;19568;-37
2023/09/30 06:06:29;;;;;;;;;1.00;1.00;;;;;24.53;47.30;101137.08;110007;1251;20135;-38
2023/09/30 06:08:58;;;;;;;;;1.00;1.00;;;;;24.53;47.27;101137.90;110010;1267;19380;-37
2023/09/30 06:11:28;;;;;;;;;1.00;1.00;;;;;24.52;47.49;101140.83;110055;1251;19634;-36
2023/09/30 06:13:55;;;;;;;;;2.50;2.00;;;;;24.53;47.30;101147.65;110047;1254;20150;-37
2023/09/30 06:16:23;;;;;;;;;2.00;2.00;;;;;24.54;47.22;101155.64;110002;1267;21725;-37
2023/09/30 06:18:50;;;;;;;;;3.00;3.00;;;;;24.56;47.02;101158.31;109946;1253;19635;-36
2023/09/30 06:21:20;;;;;;;;;5.50;5.50;;;;;24.53;46.63;101159.05;110019;1253;20101;-36
2023/09/30 06:23:48;;;;;;;;;3.00;3.00;;;;;24.47;46.15;101164.40;109892;1259;20912;-37
2023/09/30 06:26:16;;;;;;;;;3.00;3.00;;;;;24.41;46.34;101168.84;110016;1254;19616;-37
2023/09/30 06:28:44;;;;;;;;;7.00;7.00;;;;;24.33;46.10;101172.94;110019;1259;20117;-37
2023/09/30 06:31:12;;;;;;;;;11.00;11.00;;;;;24.30;46.11;101172.19;110013;1251;20880;-37
2023/09/30 06:33:39;;;;;;;;;13.00;11.00;;;;;24.30;45.82;101172.91;109963;1253;22939;-37
2023/09/30 06:36:07;;;;;;;;;13.00;10.50;;;;;24.27;45.99;101174.61;109880;1267;18736;-37
2023/09/30 06:38:34;;;;;;;;;10.00;9.00;;;;;24.27;45.87;101177.79;109887;1267;19366;-37
2023/09/30 06:41:01;;;;;;;;;8.00;7.00;;;;;24.33;45.74;101179.18;109897;1253;21126;-37
2023/09/30 06:43:29;;;;;;;;;11.00;9.00;;;;;24.32;45.83;101179.67;109938;1267;19559;-37
2023/09/30 06:45:56;;;;;;;;;8.00;7.00;;;;;24.35;45.84;101184.48;109894;1253;20951;-37
2023/09/30 06:48:24;;;;;;;;;6.67;6.67;;;;;24.40;45.83;101190.52;109910;1253;21302;-37
2023/09/30 06:50:52;;;;;;;;;7.00;6.00;;;;;24.40;45.94;101197.31;109881;1253;21015;-37
2023/09/30 06:53:21;;;;;;;;;6.00;6.00;;;;;24.42;45.96;101197.68;109979;1253;20892;-37
2023/09/30 06:55:48;;;;;;;;;5.33;5.33;;;;;24.40;45.85;101201.53;110042;1253;19633;-38
2023/09/30 06:58:20;;;;;;;;;5.00;5.00;;;;;24.38;46.25;101209.27;110042;1253;23219;-37
2023/09/30 07:00:48;;;;;;;;;5.00;5.00;;;;;24.39;46.27;101212.43;110050;1267;20622;-38
2023/09/30 07:03:16;;;;;;;;;6.00;6.00;;;;;24.41;46.02;101224.36;110045;1267;19585;-38
2023/09/30 07:05:43;;;;;;;;;5.00;5.00;;;;;24.43;46.23;101223.14;110029;1251;22110;-38
2023/09/30 07:08:10;;;;;;;;;3.00;3.00;;;;;24.43;46.16;101235.02;109996;1267;20657;-37
2023/09/30 07:10:38;;;;;;;;;6.00;3.00;;;;;24.40;46.33;101232.91;110035;1267;18420;-38
2023/09/30 07:13:06;;;;;;;;;4.50;4.00;;;;;24.43;46.36;101234.59;109972;1253;22901;-37
2023/09/30 07:15:33;;;;;;;;;2.50;2.50;;;;;24.42;46.28;101238.65;110018;1267;20719;-37
2023/09/30 07:18:01;;;;;;;;;4.33;3.00;;;;;24.43;46.20;101241.77;110008;1252;19664;-37
2023/09/30 07:20:32;;;;;;;;;3.00;2.00;;;;;24.42;46.49;101242.27;110018;1253;22675;-37
2023/09/30 07:22:59;;;;;;;;;3.00;3.00;;;;;24.41;46.48;101246.48;109994;1267;21846;-38
2023/09/30 07:25:27;;;;;;;;;5.00;3.00;;;;;24.45;46.41;101244.81;110022;1267;18763;-37
2023/09/30 07:27:54;;;;;;;;;3.67;2.00;;;;;24.48;46.53;101250.27;109989;1267;18638;-37
2023/09/30 07:30:21;;;;;;;;;2.50;2.00;;;;;24.48;46.53;101250.17;110011;1267;20596;-37
2023/09/30 07:32:50;;;;;;;;;2.00;2.00;;;;;24.45;46.47;101254.41;110040;1267;18337;-36
2023/09/30 07:35:17;;;;;;;;;3.00;3.00;;;;;24.43;46.64;101256.61;110039;1253;20043;-36
2023/09/30 07:37:44;;;;;;;;;2.00;2.00;;;;;24.56;46.25;101258.56;110010;1267;23137;-36
2023/09/30 07:40:12;;;;;;;;;2.50;2.50;;;;;24.61;46.18;101265.76;110010;1267;18431;-37
2023/09/30 07:42:39;;;;;;;;;3.00;2.50;;;;;24.62;46.00;101271.07;110060;1253;20025;-36
2023/09/30 07:45:06;;;;;;;;;2.00;2.00;;;;;24.61;46.14;101275.51;110042;1267;22599;-36
2023/09/30 07:47:34;;;;;;;;;5.00;5.00;;;;;24.61;46.28;101275.83;109956;1251;19561;-37
2023/09/30 07:50:02;;;;;;;;;3.00;2.00;;;;;24.63;46.31;101271.94;109951;1251;24021;-36
2023/09/30 07:52:29;;;;;;;;;2.50;2.00;;;;;24.64;46.29;101275.65;110037;1254;20750;-36
2023/09/30 07:54:57;;;;;;;;;2.00;2.00;;;;;24.69;46.27;101277.98;110031;1251;19908;-36
2023/09/30 07:57:24;;;;;;;;;3.00;2.00;;;;;24.82;45.81;101272.63;110041;1267;18542;-36
2023/09/30 07:59:51;;;;;;;;;2.00;2.00;;;;;24.89;45.64;101276.95;110054;1251;19350;-37
2023/09/30 08:02:18;;;;;;;;;2.00;2.00;;;;;24.93;45.55;101284.23;109990;1267;22516;-37
2023/09/30 08:04:46;;;;;;;;;2.00;2.00;;;;;24.96;45.59;101281.80;109959;1253;20180;-36
2023/09/30 08:07:13;;;;;;;;;2.00;2.00;;;;;24.97;45.42;101284.98;109994;1253;20787;-37
2023/09/30 08:09:41;;;;;;;;;2.00;2.00;;;;;24.99;45.65;101291.94;109975;1259;19575;-36
2023/09/30 08:12:08;;;;;;;;;3.00;3.00;;;;;25.05;45.39;101304.84;109933;1267;22896;-37
2023/09/30 08:14:36;;;;;;;;;3.00;3.00;;;;;25.06;45.18;101306.46;109996;1267;19326;-36
2023/09/30 08:17:03;;;;;;;;;3.00;3.00;;;;;25.10;45.40;101309.34;110021;1251;22296;-38
2023/09/30 08:19:30;;;;;;;;;5.00;3.00;;;;;25.12;44.94;101309.66;110020;1267;18649;-36
2023/09/30 08:21:58;;;;;;;;;3.00;3.00;;;;;25.16;45.15;101316.15;110012;1253;20816;-37
2023/09/30 08:24:25;;;;;;;;;2.00;2.00;;;;;25.19;45.05;101317.11;110035;1251;20880;-37
2023/09/30 08:26:52;;;;;;;;;2.00;2.00;;;;;25.21;45.01;101317.81;109998;1251;20545;-36
2023/09/30 08:29:20;;;;;;;;;2.00;2.00;;;;;25.23;44.95;101315.11;109976;1253;20775;-37
2023/09/30 08:31:47;;;;;;;;;2.50;2.50;;;;;25.24;44.88;101313.67;110002;1267;18392;-37
2023/09/30 08:34:15;;;;;;;;;3.00;3.00;;;;;25.25;44.84;101309.23;110008;1251;21408;-38
2023/09/30 08:36:42;;;;;;;;;3.00;3.00;;;;;25.27;44.60;101309.81;109978;1253;20804;-38
2023/09/30 08:39:10;;;;;;;;;3.00;3.00;;;;;25.27;44.74;101308.49;110022;1252;19714;-38
2023/09/30 08:41:37;;;;;;;;;3.00;3.00;;;;;25.27;44.58;101313.98;110017;1259;23304;-38
2023/09/30 08:44:05;;;;;;;;;3.00;3.00;;;;;25.26;44.72;101314.92;109975;1253;20786;-36
2023/09/30 08:46:33;;;;;;;;;3.00;3.00;;;;;25.27;44.78;101311.18;110007;1251;19699;-36
2023/09/30 08:49:00;;;;;;;;;3.00;3.00;;;;;25.26;44.85;101321.39;110018;1259;19974;-37
2023/09/30 08:51:28;;;;;;;;;3.00;2.00;;;;;25.24;44.73;101333.14;109985;1267;19506;-37
2023/09/30 08:53:56;;;;;;;;;2.67;2.00;;;;;25.26;44.74;101347.93;110002;1267;18550;-37
2023/09/30 08:56:23;;;;;;;;;3.00;3.00;;;;;25.24;44.90;101346.96;110000;1253;20135;-36
2023/09/30 08:58:50;;;;;;;;;2.00;2.00;;;;;25.23;44.83;101353.83;109949;1251;22655;-36
2023/09/30 09:01:18;;;;;;;;;5.00;3.00;;;;;25.17;44.96;101360.61;110002;1267;18334;-37
2023/09/30 09:03:47;;;;;;;;;3.00;2.00;;;;;25.16;44.92;101366.27;109998;1267;18629;-38
2023/09/30 09:06:14;;;;;;;;;6.00;3.00;;;;;25.14;45.07;101371.38;109995;1253;22281;-37
2023/09/30 09:08:42;;;;;;;;;2.00;2.00;;;;;25.12;44.95;101369.86;109932;1267;18622;-37
2023/09/30 09:11:09;;;;;;;;;3.00;3.00;;;;;25.17;44.77;101369.11;110033;1267;18530;-37
2023/09/30 09:13:37;;;;;;;;;3.50;2.50;;;;;25.22;44.81;101370.67;110045;1255;20793;-37
2023/09/30 09:16:04;;;;;;;;;3.00;3.00;;;;;25.19;45.04;101366.14;109998;1259;19699;-37
2023/09/30 09:18:31;;;;;;;;;5.00;3.00;;;;;25.19;45.03;101367.84;109998;1255;20182;-37
2023/09/30 09:20:59;;;;;;;;;2.00;2.00;;;;;25.18;45.10;101370.92;110000;1251;22277;-37
2023/09/30 09:23:26;;;;;;;;;2.00;2.00;;;;;25.19;44.92;101370.79;110014;1251;19649;-37
2023/09/30 09:25:53;;;;;;;;;3.00;3.00;;;;;25.17;44.83;101381.34;110020;1251;20121;-37
2023/09/30 09:28:21;;;;;;;;;3.00;3.00;;;;;25.12;45.07;101379.63;109985;1251;20816;-37
2023/09/30 09:30:48;;;;;;;;;2.00;2.00;;;;;25.13;44.98;101387.56;109996;1267;19595;-37
2023/09/30 09:33:15;;;;;;;;;3.00;3.00;;;;;25.11;45.36;101400.41;110008;1251;18831;-37
2023/09/30 09:35:43;;;;;;;;;3.00;3.00;;;;;25.09;45.09;101394.98;110004;1252;20829;-37
2023/09/30 09:38:10;;;;;;;;;5.00;5.00;;;;;25.08;45.21;101393.36;109987;1267;21418;-37
2023/09/30 09:40:37;;;;;;;;;5.00;3.00;;;;;25.08;45.29;101397.36;110005;1259;19938;-37
2023/09/30 09:43:05;;;;;;;;;6.00;3.00;;;;;25.09;45.23;101397.40;110012;1267;19337;-35
2023/09/30 09:45:32;;;;;;;;;3.00;3.00;;;;;25.10;45.32;101397.34;109979;1253;19560;-37
2023/09/30 09:48:00;;;;;;;;;2.00;2.00;;;;;25.09;45.20;101391.27;109977;1267;18785;-37
2023/09/30 09:50:28;;;;;;;;;3.00;3.00;;;;;25.10;45.25;101394.55;109959;1267;20249;-37
2023/09/30 09:52:56;;;;;;;;;5.00;5.00;;;;;25.09;44.92;101395.48;110014;1253;19616;-37
2023/09/30 09:55:23;;;;;;;;;;;;;;;25.09;45.18;101402.95;109972;1253;20003;-38
2023/09/30 09:57:50;;;;;;;;;3.00;3.00;;;;;25.06;45.35;101404.77;109928;1267;19274;-36
2023/09/30 10:00:18;;;;;;;;;5.00;5.00;;;;;25.08;45.28;101403.66;110006;1251;18599;-36
2023/09/30 10:02:45;;;;;;;;;5.00;3.00;;;;;25.06;45.30;101402.46;109592;1265;503804;-37
2023/09/30 10:05:13;;;;;;;;;3.00;3.00;;;;;25.05;45.24;101406.04;109999;1253;20938;-37
2023/09/30 10:07:40;;;;;;;;;3.00;3.00;;;;;25.05;45.25;101403.73;110013;1267;18992;-37
2023/09/30 10:10:07;;;;;;;;;2.00;2.00;;;;;25.03;45.43;101407.91;110035;1251;18613;-37
2023/09/30 10:12:35;;;;;;;;;5.00;5.00;;;;;25.03;45.44;101410.65;110044;1253;21729;-37
2023/09/30 10:15:02;;;;;;;;;3.00;3.00;;;;;25.04;45.41;101407.47;110001;1251;22745;-37
2023/09/30 10:17:30;;;;;;;;;5.50;5.00;;;;;25.04;45.41;101420.95;110023;1251;20940;-37
2023/09/30 10:19:57;;;;;;;;;3.00;3.00;;;;;25.04;45.30;101425.45;109929;1251;22073;-37
2023/09/30 10:22:25;;;;;;;;;5.00;3.00;;;;;25.01;45.29;101429.09;110028;1259;19562;-36
2023/09/30 10:24:53;;;;;;;;;2.00;2.00;;;;;25.01;45.45;101431.94;110013;1267;18556;-36
2023/09/30 10:27:21;;;;;;;;;3.00;3.00;;;;;25.00;45.34;101429.20;109976;1253;20822;-37
2023/09/30 10:29:48;;;;;;;;;4.33;4.33;;;;;25.00;45.46;101430.90;110021;1267;18706;-37
2023/09/30 10:32:15;;;;;;;;;3.67;2.67;;;;;24.99;45.57;101426.02;110011;1267;20454;-37
2023/09/30 10:34:43;;;;;;;;;3.00;3.00;;;;;25.01;45.32;101425.30;110031;1253;20728;-37
2023/09/30 10:37:10;;;;;;;;;2.00;2.00;;;;;25.02;45.52;101422.23;110043;1267;18420;-37
2023/09/30 10:39:37;;;;;;;;;3.00;2.50;;;;;25.02;45.32;101429.63;109998;1267;19088;-36
2023/09/30 10:42:05;;;;;;;;;3.00;3.00;;;;;25.02;45.39;101422.17;110020;1267;19316;-36
2023/09/30 10:44:32;;;;;;;;;2.00;2.00;;;;;25.02;45.28;101421.52;109990;1253;19613;-37
2023/09/30 10:46:59;;;;;;;;;3.00;3.00;;;;;25.02;45.34;101423.48;110000;1253;20068;-38
2023/09/30 10:49:27;;;;;;;;;5.00;5.00;;;;;25.03;45.39;101420.63;109996;1253;20767;-37
2023/09/30 10:51:55;;;;;;;;;3.00;3.00;;;;;25.03;45.22;101419.98;109965;1251;18351;-37
2023/09/30 10:54:23;;;;;;;;;3.00;2.00;;;;;25.00;45.46;101429.86;109993;1251;20050;-36
2023/09/30 10:56:50;;;;;;;;;3.00;3.00;;;;;25.00;45.43;101427.23;110007;1253;20761;-36
2023/09/30 10:59:17;;;;;;;;;3.00;2.00;;;;;25.00;45.47;101431.17;110020;1251;20494;-36
2023/09/30 11:01:45;;;;;;;;;5.00;3.00;;;;;25.00;45.18;101435.23;109993;1253;20063;-37
2023/09/30 11:04:12;;;;;;;;;5.00;5.00;;;;;25.01;45.37;101432.16;110011;1267;19384;-36
2023/09/30 11:06:39;;;;;;;;;5.00;5.00;;;;;25.01;45.11;101434.17;110008;1266;18474;-36
2023/09/30 11:09:09;;;;;;;;;6.00;3.00;;;;;24.99;45.30;101431.27;110015;1267;22660;-37
2023/09/30 11:11:37;;;;;;;;;3.00;3.00;;;;;25.00;45.20;101429.81;110011;1253;20668;-36
2023/09/30 11:14:06;;;;;;;;;5.00;3.00;;;;;25.01;45.32;101435.88;109999;1251;18495;-37
2023/09/30 11:16:33;;;;;;;;;2.00;2.00;;;;;25.02;45.31;101429.85;110016;1267;18654;-37
2023/09/30 11:19:00;;;;;;;;;3.00;3.00;;;;;25.01;45.38;101432.10;109970;1259;20967;-37